sensor_id;sensor_type;location;lat;lon;timestamp;temperature;humidity
27900;DHT22;15243;50.726;7.080;2022-08-04T00:02:23;21.60;99.90
27900;DHT22;15243;50.726;7.080;2022-08-04T00:05:03;21.50;99.90
27900;DHT22;15243;50.726;7.080;2022-08-04T00:10:21;21.40;99.90
27900;DHT22;15243;50.726;7.080;2022-08-04T00:12:50;21.30;99.90
27900;DHT22;15243;50.726;7.080;2022-08-04T00:15:18;21.30;99.90
27900;DHT22;15243;50.726;7.080;2022-08-04T00:18:02;21.30;99.90
27900;DHT22;15243;50.726;7.080;2022-08-04T00:20:32;21.20;99.90
27900;DHT22;15243;50.726;7.080;2022-08-04T00:23:01;21.20;99.90
27900;DHT22;15243;50.726;7.080;2022-08-04T00:25:28;21.10;99.90
27900;DHT22;15243;50.726;7.080;2022-08-04T00:27:56;21.10;99.90
27900;DHT22;15243;50.726;7.080;2022-08-04T00:30:23;21.00;99.90
27900;DHT22;15243;50.726;7.080;2022-08-04T00:32:51;21.00;99.90
27900;DHT22;15243;50.726;7.080;2022-08-04T00:35:19;20.90;99.90
27900;DHT22;15243;50.726;7.080;2022-08-04T00:37:46;20.80;99.90
27900;DHT22;15243;50.726;7.080;2022-08-04T00:43:20;20.80;99.90
27900;DHT22;15243;50.726;7.080;2022-08-04T01:00:06;20.50;99.90
27900;DHT22;15243;50.726;7.080;2022-08-04T01:03:13;20.40;99.90
27900;DHT22;15243;50.726;7.080;2022-08-04T01:08:53;20.50;99.90
27900;DHT22;15243;50.726;7.080;2022-08-04T01:11:25;20.60;99.90
27900;DHT22;15243;50.726;7.080;2022-08-04T01:14:27;20.60;99.90
27900;DHT22;15243;50.726;7.080;2022-08-04T01:17:11;20.60;99.90
27900;DHT22;15243;50.726;7.080;2022-08-04T01:20:07;20.50;99.90
27900;DHT22;15243;50.726;7.080;2022-08-04T01:31:29;20.30;99.90
27900;DHT22;15243;50.726;7.080;2022-08-04T01:34:02;20.20;99.90
27900;DHT22;15243;50.726;7.080;2022-08-04T01:36:34;20.20;99.90
27900;DHT22;15243;50.726;7.080;2022-08-04T01:39:03;20.10;99.90
27900;DHT22;15243;50.726;7.080;2022-08-04T01:41:51;20.20;99.90
27900;DHT22;15243;50.726;7.080;2022-08-04T01:44:26;20.10;99.90
27900;DHT22;15243;50.726;7.080;2022-08-04T01:46:55;20.00;99.90
27900;DHT22;15243;50.726;7.080;2022-08-04T01:49:28;20.10;99.90
27900;DHT22;15243;50.726;7.080;2022-08-04T01:52:08;20.00;99.90
27900;DHT22;15243;50.726;7.080;2022-08-04T01:54:41;19.90;99.90
27900;DHT22;15243;50.726;7.080;2022-08-04T01:57:11;19.80;99.90
27900;DHT22;15243;50.726;7.080;2022-08-04T02:00:00;19.80;99.90
27900;DHT22;15243;50.726;7.080;2022-08-04T02:02:28;19.80;99.90
27900;DHT22;15243;50.726;7.080;2022-08-04T02:04:55;19.80;99.90
27900;DHT22;15243;50.726;7.080;2022-08-04T02:10:07;19.80;99.90
27900;DHT22;15243;50.726;7.080;2022-08-04T02:13:00;19.70;99.90
27900;DHT22;15243;50.726;7.080;2022-08-04T02:20:59;19.70;99.90
27900;DHT22;15243;50.726;7.080;2022-08-04T02:23:34;19.70;99.90
27900;DHT22;15243;50.726;7.080;2022-08-04T02:26:11;19.70;99.90
27900;DHT22;15243;50.726;7.080;2022-08-04T02:28:59;19.60;99.90
27900;DHT22;15243;50.726;7.080;2022-08-04T02:34:08;19.50;99.90
27900;DHT22;15243;50.726;7.080;2022-08-04T02:36:40;19.40;99.90
27900;DHT22;15243;50.726;7.080;2022-08-04T02:39:09;19.40;99.90
27900;DHT22;15243;50.726;7.080;2022-08-04T02:41:38;19.40;99.90
27900;DHT22;15243;50.726;7.080;2022-08-04T02:44:09;19.40;99.90
27900;DHT22;15243;50.726;7.080;2022-08-04T02:46:37;19.40;99.90
27900;DHT22;15243;50.726;7.080;2022-08-04T02:49:06;19.30;99.90
27900;DHT22;15243;50.726;7.080;2022-08-04T02:51:36;19.40;99.90
27900;DHT22;15243;50.726;7.080;2022-08-04T02:54:04;19.30;99.90
27900;DHT22;15243;50.726;7.080;2022-08-04T02:56:34;19.30;99.90
27900;DHT22;15243;50.726;7.080;2022-08-04T02:59:06;19.30;99.90
27900;DHT22;15243;50.726;7.080;2022-08-04T03:01:34;19.30;99.90
27900;DHT22;15243;50.726;7.080;2022-08-04T03:04:20;19.20;99.90
27900;DHT22;15243;50.726;7.080;2022-08-04T03:19:12;19.20;99.90
27900;DHT22;15243;50.726;7.080;2022-08-04T03:22:04;19.20;99.90
27900;DHT22;15243;50.726;7.080;2022-08-04T03:24:56;19.20;99.90
27900;DHT22;15243;50.726;7.080;2022-08-04T03:27:52;19.20;99.90
27900;DHT22;15243;50.726;7.080;2022-08-04T03:33:43;19.10;99.90
27900;DHT22;15243;50.726;7.080;2022-08-04T03:36:47;19.10;99.90
27900;DHT22;15243;50.726;7.080;2022-08-04T03:42:11;19.00;99.90
27900;DHT22;15243;50.726;7.080;2022-08-04T03:47:57;18.90;99.90
27900;DHT22;15243;50.726;7.080;2022-08-04T03:50:41;18.90;99.90
27900;DHT22;15243;50.726;7.080;2022-08-04T03:53:35;18.90;99.90
27900;DHT22;15243;50.726;7.080;2022-08-04T03:59:21;18.80;99.90
27900;DHT22;15243;50.726;7.080;2022-08-04T04:02:04;18.80;99.90
27900;DHT22;15243;50.726;7.080;2022-08-04T04:04:50;18.80;99.90
27900;DHT22;15243;50.726;7.080;2022-08-04T04:15:57;18.80;99.90
27900;DHT22;15243;50.726;7.080;2022-08-04T04:32:26;19.00;99.90
27900;DHT22;15243;50.726;7.080;2022-08-04T04:35:20;19.00;99.90
27900;DHT22;15243;50.726;7.080;2022-08-04T04:46:44;19.10;99.90
27900;DHT22;15243;50.726;7.080;2022-08-04T04:49:23;19.20;99.90
27900;DHT22;15243;50.726;7.080;2022-08-04T04:52:05;19.10;99.90
27900;DHT22;15243;50.726;7.080;2022-08-04T04:54:39;19.20;99.90
27900;DHT22;15243;50.726;7.080;2022-08-04T04:57:13;19.20;99.90
27900;DHT22;15243;50.726;7.080;2022-08-04T05:02:24;19.40;99.90
27900;DHT22;15243;50.726;7.080;2022-08-04T05:13:37;19.60;99.90
27900;DHT22;15243;50.726;7.080;2022-08-04T05:16:35;19.60;99.90
27900;DHT22;15243;50.726;7.080;2022-08-04T05:21:50;19.80;99.90
27900;DHT22;15243;50.726;7.080;2022-08-04T05:24:20;19.80;99.90
27900;DHT22;15243;50.726;7.080;2022-08-04T05:26:52;19.90;99.90
27900;DHT22;15243;50.726;7.080;2022-08-04T05:29:27;20.00;99.90
27900;DHT22;15243;50.726;7.080;2022-08-04T05:32:07;20.10;99.90
27900;DHT22;15243;50.726;7.080;2022-08-04T05:34:42;20.20;99.90
27900;DHT22;15243;50.726;7.080;2022-08-04T05:37:16;20.20;99.90
27900;DHT22;15243;50.726;7.080;2022-08-04T05:39:48;20.40;99.90
27900;DHT22;15243;50.726;7.080;2022-08-04T05:42:17;20.50;99.90
27900;DHT22;15243;50.726;7.080;2022-08-04T05:44:49;20.60;99.90
27900;DHT22;15243;50.726;7.080;2022-08-04T05:47:18;20.70;99.90
27900;DHT22;15243;50.726;7.080;2022-08-04T05:49:48;20.80;99.90
27900;DHT22;15243;50.726;7.080;2022-08-04T05:52:27;21.00;99.90
27900;DHT22;15243;50.726;7.080;2022-08-04T05:54:56;21.10;99.90
27900;DHT22;15243;50.726;7.080;2022-08-04T05:57:25;21.20;99.90
27900;DHT22;15243;50.726;7.080;2022-08-04T05:59:52;21.30;99.90
27900;DHT22;15243;50.726;7.080;2022-08-04T06:02:21;21.50;99.90
27900;DHT22;15243;50.726;7.080;2022-08-04T06:04:50;21.80;99.90
27900;DHT22;15243;50.726;7.080;2022-08-04T06:07:18;21.80;99.90
27900;DHT22;15243;50.726;7.080;2022-08-04T06:09:45;21.70;99.90
27900;DHT22;15243;50.726;7.080;2022-08-04T06:12:24;21.80;99.90
27900;DHT22;15243;50.726;7.080;2022-08-04T06:14:53;21.80;99.90
27900;DHT22;15243;50.726;7.080;2022-08-04T06:17:30;22.00;99.90
27900;DHT22;15243;50.726;7.080;2022-08-04T06:20:18;22.10;99.90
27900;DHT22;15243;50.726;7.080;2022-08-04T06:22:54;22.20;99.90
27900;DHT22;15243;50.726;7.080;2022-08-04T06:25:23;22.40;99.90
27900;DHT22;15243;50.726;7.080;2022-08-04T06:27:51;22.40;99.90
27900;DHT22;15243;50.726;7.080;2022-08-04T06:30:21;22.50;99.90
27900;DHT22;15243;50.726;7.080;2022-08-04T06:32:52;22.60;99.90
27900;DHT22;15243;50.726;7.080;2022-08-04T06:35:31;22.70;99.90
27900;DHT22;15243;50.726;7.080;2022-08-04T06:37:59;22.90;99.90
27900;DHT22;15243;50.726;7.080;2022-08-04T06:40:28;23.10;99.90
27900;DHT22;15243;50.726;7.080;2022-08-04T06:43:04;23.20;99.90
27900;DHT22;15243;50.726;7.080;2022-08-04T06:45:37;23.30;99.90
27900;DHT22;15243;50.726;7.080;2022-08-04T06:48:06;23.40;99.90
27900;DHT22;15243;50.726;7.080;2022-08-04T06:50:34;23.70;99.90
27900;DHT22;15243;50.726;7.080;2022-08-04T06:53:21;23.80;99.90
27900;DHT22;15243;50.726;7.080;2022-08-04T06:55:49;24.00;99.90
27900;DHT22;15243;50.726;7.080;2022-08-04T06:58:19;24.10;99.90
27900;DHT22;15243;50.726;7.080;2022-08-04T07:00:47;24.30;99.90
27900;DHT22;15243;50.726;7.080;2022-08-04T07:03:17;24.50;99.90
27900;DHT22;15243;50.726;7.080;2022-08-04T07:05:46;24.50;99.90
27900;DHT22;15243;50.726;7.080;2022-08-04T07:08:14;24.70;99.90
27900;DHT22;15243;50.726;7.080;2022-08-04T07:10:43;24.80;99.90
27900;DHT22;15243;50.726;7.080;2022-08-04T07:13:10;25.00;99.90
27900;DHT22;15243;50.726;7.080;2022-08-04T07:15:40;25.20;99.90
27900;DHT22;15243;50.726;7.080;2022-08-04T07:18:09;25.40;99.90
27900;DHT22;15243;50.726;7.080;2022-08-04T07:20:42;25.50;99.90
27900;DHT22;15243;50.726;7.080;2022-08-04T07:23:11;25.70;99.90
27900;DHT22;15243;50.726;7.080;2022-08-04T07:25:43;26.00;99.90
27900;DHT22;15243;50.726;7.080;2022-08-04T07:28:36;26.10;99.90
27900;DHT22;15243;50.726;7.080;2022-08-04T07:31:04;26.10;99.90
27900;DHT22;15243;50.726;7.080;2022-08-04T07:33:31;26.40;99.90
27900;DHT22;15243;50.726;7.080;2022-08-04T07:35:58;26.50;99.90
27900;DHT22;15243;50.726;7.080;2022-08-04T07:38:41;26.70;99.90
27900;DHT22;15243;50.726;7.080;2022-08-04T07:41:22;26.90;99.90
27900;DHT22;15243;50.726;7.080;2022-08-04T07:44:06;27.10;99.90
27900;DHT22;15243;50.726;7.080;2022-08-04T07:46:35;27.20;99.90
27900;DHT22;15243;50.726;7.080;2022-08-04T07:49:02;27.40;99.90
27900;DHT22;15243;50.726;7.080;2022-08-04T07:51:30;27.60;99.90
27900;DHT22;15243;50.726;7.080;2022-08-04T07:53:58;27.80;99.90
27900;DHT22;15243;50.726;7.080;2022-08-04T07:56:26;27.80;99.90
27900;DHT22;15243;50.726;7.080;2022-08-04T07:58:54;27.90;99.90
27900;DHT22;15243;50.726;7.080;2022-08-04T08:01:25;28.00;99.90
27900;DHT22;15243;50.726;7.080;2022-08-04T08:03:55;28.10;99.90
27900;DHT22;15243;50.726;7.080;2022-08-04T08:06:23;28.20;99.90
27900;DHT22;15243;50.726;7.080;2022-08-04T08:09:00;28.30;99.90
27900;DHT22;15243;50.726;7.080;2022-08-04T08:11:45;28.30;99.90
27900;DHT22;15243;50.726;7.080;2022-08-04T08:14:33;28.50;99.90
27900;DHT22;15243;50.726;7.080;2022-08-04T08:17:01;28.50;99.90
27900;DHT22;15243;50.726;7.080;2022-08-04T08:19:30;28.80;99.90
27900;DHT22;15243;50.726;7.080;2022-08-04T08:21:58;28.70;99.90
27900;DHT22;15243;50.726;7.080;2022-08-04T08:24:28;28.90;99.90
27900;DHT22;15243;50.726;7.080;2022-08-04T08:26:56;29.00;99.90
27900;DHT22;15243;50.726;7.080;2022-08-04T08:29:23;29.20;99.90
27900;DHT22;15243;50.726;7.080;2022-08-04T08:31:51;29.40;99.90
27900;DHT22;15243;50.726;7.080;2022-08-04T08:34:28;29.50;99.90
27900;DHT22;15243;50.726;7.080;2022-08-04T08:37:03;29.50;99.90
27900;DHT22;15243;50.726;7.080;2022-08-04T08:39:45;29.50;99.90
27900;DHT22;15243;50.726;7.080;2022-08-04T08:42:36;29.70;99.90
27900;DHT22;15243;50.726;7.080;2022-08-04T09:11:12;31.70;99.90
27900;DHT22;15243;50.726;7.080;2022-08-04T09:13:56;32.10;99.90
27900;DHT22;15243;50.726;7.080;2022-08-04T09:16:44;32.20;99.90
27900;DHT22;15243;50.726;7.080;2022-08-04T09:22:15;32.30;99.90
27900;DHT22;15243;50.726;7.080;2022-08-04T09:24:53;32.30;99.90
27900;DHT22;15243;50.726;7.080;2022-08-04T09:27:38;32.60;99.90
27900;DHT22;15243;50.726;7.080;2022-08-04T09:30:09;32.90;99.90
27900;DHT22;15243;50.726;7.080;2022-08-04T09:38:19;33.20;99.90
27900;DHT22;15243;50.726;7.080;2022-08-04T09:40:59;33.40;99.90
27900;DHT22;15243;50.726;7.080;2022-08-04T09:52:58;34.20;95.30
27900;DHT22;15243;50.726;7.080;2022-08-04T09:58:53;34.00;92.40
27900;DHT22;15243;50.726;7.080;2022-08-04T10:01:24;33.80;91.70
27900;DHT22;15243;50.726;7.080;2022-08-04T10:04:01;33.70;89.90
27900;DHT22;15243;50.726;7.080;2022-08-04T10:09:33;32.80;88.80
27900;DHT22;15243;50.726;7.080;2022-08-04T10:15:05;33.10;86.20
27900;DHT22;15243;50.726;7.080;2022-08-04T10:26:14;34.00;84.80
27900;DHT22;15243;50.726;7.080;2022-08-04T10:28:50;34.00;85.10
27900;DHT22;15243;50.726;7.080;2022-08-04T10:31:25;34.00;84.60
27900;DHT22;15243;50.726;7.080;2022-08-04T10:36:39;33.90;80.90
27900;DHT22;15243;50.726;7.080;2022-08-04T10:39:11;33.70;78.40
27900;DHT22;15243;50.726;7.080;2022-08-04T10:42:10;33.90;78.30
27900;DHT22;15243;50.726;7.080;2022-08-04T10:45:00;33.90;75.50
27900;DHT22;15243;50.726;7.080;2022-08-04T10:47:37;33.70;75.80
27900;DHT22;15243;50.726;7.080;2022-08-04T10:50:09;33.90;73.60
27900;DHT22;15243;50.726;7.080;2022-08-04T10:52:45;34.10;70.30
27900;DHT22;15243;50.726;7.080;2022-08-04T10:55:26;34.60;68.20
27900;DHT22;15243;50.726;7.080;2022-08-04T10:58:24;34.60;71.20
27900;DHT22;15243;50.726;7.080;2022-08-04T11:01:19;35.00;71.90
27900;DHT22;15243;50.726;7.080;2022-08-04T11:04:36;34.90;68.70
27900;DHT22;15243;50.726;7.080;2022-08-04T11:07:07;35.20;63.40
27900;DHT22;15243;50.726;7.080;2022-08-04T11:09:36;35.10;62.90
27900;DHT22;15243;50.726;7.080;2022-08-04T11:12:20;35.20;61.60
27900;DHT22;15243;50.726;7.080;2022-08-04T11:15:08;35.00;58.30
27900;DHT22;15243;50.726;7.080;2022-08-04T11:17:48;35.10;58.80
27900;DHT22;15243;50.726;7.080;2022-08-04T11:20:49;35.20;57.50
27900;DHT22;15243;50.726;7.080;2022-08-04T11:23:23;35.20;55.20
27900;DHT22;15243;50.726;7.080;2022-08-04T11:25:59;35.30;54.50
27900;DHT22;15243;50.726;7.080;2022-08-04T11:28:55;35.70;55.10
27900;DHT22;15243;50.726;7.080;2022-08-04T11:31:35;35.50;53.80
27900;DHT22;15243;50.726;7.080;2022-08-04T11:34:20;35.40;54.10
27900;DHT22;15243;50.726;7.080;2022-08-04T11:37:27;35.10;50.80
27900;DHT22;15243;50.726;7.080;2022-08-04T11:40:08;35.80;49.50
27900;DHT22;15243;50.726;7.080;2022-08-04T11:42:40;35.90;49.60
27900;DHT22;15243;50.726;7.080;2022-08-04T11:45:18;35.30;49.90
27900;DHT22;15243;50.726;7.080;2022-08-04T11:47:56;35.00;51.30
27900;DHT22;15243;50.726;7.080;2022-08-04T11:52:55;35.00;52.70
27900;DHT22;15243;50.726;7.080;2022-08-04T11:55:25;35.00;53.40
27900;DHT22;15243;50.726;7.080;2022-08-04T11:57:53;34.80;54.40
27900;DHT22;15243;50.726;7.080;2022-08-04T12:00:21;34.70;54.20
27900;DHT22;15243;50.726;7.080;2022-08-04T12:03:10;34.50;54.30
27900;DHT22;15243;50.726;7.080;2022-08-04T12:05:56;34.30;55.20
27900;DHT22;15243;50.726;7.080;2022-08-04T12:08:35;34.10;55.60
27900;DHT22;15243;50.726;7.080;2022-08-04T12:14:17;33.60;58.70
27900;DHT22;15243;50.726;7.080;2022-08-04T12:22:26;33.20;63.90
27900;DHT22;15243;50.726;7.080;2022-08-04T12:25:04;32.80;65.10
27900;DHT22;15243;50.726;7.080;2022-08-04T12:27:36;32.80;66.30
27900;DHT22;15243;50.726;7.080;2022-08-04T12:30:06;32.60;67.10
27900;DHT22;15243;50.726;7.080;2022-08-04T12:33:04;32.70;68.30
27900;DHT22;15243;50.726;7.080;2022-08-04T12:35:39;32.90;68.40
27900;DHT22;15243;50.726;7.080;2022-08-04T12:38:32;33.00;66.00
27900;DHT22;15243;50.726;7.080;2022-08-04T12:41:00;32.90;66.70
27900;DHT22;15243;50.726;7.080;2022-08-04T12:43:37;32.90;68.30
27900;DHT22;15243;50.726;7.080;2022-08-04T12:46:24;32.80;69.00
27900;DHT22;15243;50.726;7.080;2022-08-04T12:48:59;32.80;67.20
27900;DHT22;15243;50.726;7.080;2022-08-04T12:51:27;32.90;67.40
27900;DHT22;15243;50.726;7.080;2022-08-04T12:54:24;32.80;67.70
27900;DHT22;15243;50.726;7.080;2022-08-04T12:56:57;32.90;69.80
27900;DHT22;15243;50.726;7.080;2022-08-04T12:59:24;32.80;70.30
27900;DHT22;15243;50.726;7.080;2022-08-04T13:01:53;32.70;72.80
27900;DHT22;15243;50.726;7.080;2022-08-04T13:04:43;32.70;73.90
27900;DHT22;15243;50.726;7.080;2022-08-04T13:07:22;32.70;75.40
27900;DHT22;15243;50.726;7.080;2022-08-04T13:09:51;32.10;75.70
27900;DHT22;15243;50.726;7.080;2022-08-04T13:12:28;32.10;76.00
27900;DHT22;15243;50.726;7.080;2022-08-04T13:15:09;32.10;77.00
27900;DHT22;15243;50.726;7.080;2022-08-04T13:18:08;32.00;75.30
27900;DHT22;15243;50.726;7.080;2022-08-04T13:20:42;31.90;76.30
27900;DHT22;15243;50.726;7.080;2022-08-04T13:23:14;31.90;78.20
27900;DHT22;15243;50.726;7.080;2022-08-04T13:25:49;32.00;74.70
27900;DHT22;15243;50.726;7.080;2022-08-04T13:28:42;32.00;74.40
27900;DHT22;15243;50.726;7.080;2022-08-04T13:31:13;32.00;73.50
27900;DHT22;15243;50.726;7.080;2022-08-04T13:33:44;32.10;74.40
27900;DHT22;15243;50.726;7.080;2022-08-04T13:36:13;32.00;72.30
27900;DHT22;15243;50.726;7.080;2022-08-04T13:39:03;32.00;73.50
27900;DHT22;15243;50.726;7.080;2022-08-04T13:41:35;32.00;74.00
27900;DHT22;15243;50.726;7.080;2022-08-04T13:44:10;31.90;73.90
27900;DHT22;15243;50.726;7.080;2022-08-04T13:46:48;32.10;74.00
27900;DHT22;15243;50.726;7.080;2022-08-04T13:49:17;32.40;74.90
27900;DHT22;15243;50.726;7.080;2022-08-04T13:52:07;32.00;74.30
27900;DHT22;15243;50.726;7.080;2022-08-04T13:54:37;32.00;76.00
27900;DHT22;15243;50.726;7.080;2022-08-04T13:57:26;31.90;77.20
27900;DHT22;15243;50.726;7.080;2022-08-04T13:59:58;32.70;75.20
27900;DHT22;15243;50.726;7.080;2022-08-04T14:02:42;33.30;74.60
27900;DHT22;15243;50.726;7.080;2022-08-04T14:05:16;33.20;74.00
27900;DHT22;15243;50.726;7.080;2022-08-04T14:07:49;33.50;75.30
27900;DHT22;15243;50.726;7.080;2022-08-04T14:10:19;33.40;76.60
27900;DHT22;15243;50.726;7.080;2022-08-04T14:12:50;33.80;74.30
27900;DHT22;15243;50.726;7.080;2022-08-04T14:15:49;33.90;76.30
27900;DHT22;15243;50.726;7.080;2022-08-04T14:18:31;34.10;74.60
27900;DHT22;15243;50.726;7.080;2022-08-04T14:20:59;33.90;74.00
27900;DHT22;15243;50.726;7.080;2022-08-04T14:23:28;33.90;71.70
27900;DHT22;15243;50.726;7.080;2022-08-04T14:25:59;34.10;71.30
27900;DHT22;15243;50.726;7.080;2022-08-04T14:28:30;34.10;71.80
27900;DHT22;15243;50.726;7.080;2022-08-04T14:31:20;34.10;72.00
27900;DHT22;15243;50.726;7.080;2022-08-04T14:33:49;34.00;72.20
27900;DHT22;15243;50.726;7.080;2022-08-04T14:36:39;34.10;71.70
27900;DHT22;15243;50.726;7.080;2022-08-04T14:39:38;33.90;72.30
27900;DHT22;15243;50.726;7.080;2022-08-04T14:42:06;34.20;71.20
27900;DHT22;15243;50.726;7.080;2022-08-04T14:44:56;34.40;72.00
27900;DHT22;15243;50.726;7.080;2022-08-04T14:47:41;34.70;69.70
27900;DHT22;15243;50.726;7.080;2022-08-04T14:50:18;34.30;70.90
27900;DHT22;15243;50.726;7.080;2022-08-04T14:52:46;33.70;70.10
27900;DHT22;15243;50.726;7.080;2022-08-04T14:55:18;33.20;71.20
27900;DHT22;15243;50.726;7.080;2022-08-04T14:57:46;32.70;73.00
27900;DHT22;15243;50.726;7.080;2022-08-04T15:00:35;32.40;74.00
27900;DHT22;15243;50.726;7.080;2022-08-04T15:03:03;32.40;73.70
27900;DHT22;15243;50.726;7.080;2022-08-04T15:05:30;32.40;76.20
27900;DHT22;15243;50.726;7.080;2022-08-04T15:08:19;32.40;76.00
27900;DHT22;15243;50.726;7.080;2022-08-04T15:10:46;32.40;74.50
27900;DHT22;15243;50.726;7.080;2022-08-04T15:13:13;32.40;76.00
27900;DHT22;15243;50.726;7.080;2022-08-04T15:15:41;32.50;76.30
27900;DHT22;15243;50.726;7.080;2022-08-04T15:18:27;32.90;76.80
27900;DHT22;15243;50.726;7.080;2022-08-04T15:21:00;33.30;77.40
27900;DHT22;15243;50.726;7.080;2022-08-04T15:23:28;33.40;77.80
27900;DHT22;15243;50.726;7.080;2022-08-04T15:26:08;33.60;77.80
27900;DHT22;15243;50.726;7.080;2022-08-04T15:28:37;33.50;78.30
27900;DHT22;15243;50.726;7.080;2022-08-04T15:31:07;33.40;74.40
27900;DHT22;15243;50.726;7.080;2022-08-04T15:33:55;32.90;74.90
27900;DHT22;15243;50.726;7.080;2022-08-04T15:39:34;32.50;76.10
27900;DHT22;15243;50.726;7.080;2022-08-04T15:42:12;32.20;76.80
27900;DHT22;15243;50.726;7.080;2022-08-04T15:47:17;31.90;79.90
27900;DHT22;15243;50.726;7.080;2022-08-04T15:49:44;31.70;78.90
27900;DHT22;15243;50.726;7.080;2022-08-04T15:52:13;31.40;78.40
27900;DHT22;15243;50.726;7.080;2022-08-04T15:54:42;31.10;80.50
27900;DHT22;15243;50.726;7.080;2022-08-04T15:57:57;31.00;81.40
27900;DHT22;15243;50.726;7.080;2022-08-04T16:00:27;31.10;82.60
27900;DHT22;15243;50.726;7.080;2022-08-04T16:02:54;30.90;83.70
27900;DHT22;15243;50.726;7.080;2022-08-04T16:18:19;30.20;93.60
27900;DHT22;15243;50.726;7.080;2022-08-04T16:20:56;29.60;99.90
27900;DHT22;15243;50.726;7.080;2022-08-04T16:23:47;28.80;99.90
27900;DHT22;15243;50.726;7.080;2022-08-04T16:29:30;27.00;99.90
27900;DHT22;15243;50.726;7.080;2022-08-04T16:32:21;26.30;99.90
27900;DHT22;15243;50.726;7.080;2022-08-04T16:34:55;25.90;99.90
27900;DHT22;15243;50.726;7.080;2022-08-04T16:40:29;25.30;99.90
27900;DHT22;15243;50.726;7.080;2022-08-04T16:43:13;25.10;99.90
27900;DHT22;15243;50.726;7.080;2022-08-04T16:45:44;25.10;99.90
27900;DHT22;15243;50.726;7.080;2022-08-04T16:48:19;24.70;99.90
27900;DHT22;15243;50.726;7.080;2022-08-04T16:50:55;24.80;99.90
27900;DHT22;15243;50.726;7.080;2022-08-04T16:56:30;25.10;99.90
27900;DHT22;15243;50.726;7.080;2022-08-04T16:59:08;25.00;99.90
27900;DHT22;15243;50.726;7.080;2022-08-04T17:01:36;24.90;99.90
27900;DHT22;15243;50.726;7.080;2022-08-04T17:04:04;25.00;99.90
27900;DHT22;15243;50.726;7.080;2022-08-04T17:06:38;25.10;99.90
27900;DHT22;15243;50.726;7.080;2022-08-04T17:09:12;25.20;99.90
27900;DHT22;15243;50.726;7.080;2022-08-04T17:11:41;25.20;99.90
27900;DHT22;15243;50.726;7.080;2022-08-04T17:14:09;25.20;99.90
27900;DHT22;15243;50.726;7.080;2022-08-04T17:16:41;25.20;99.90
27900;DHT22;15243;50.726;7.080;2022-08-04T17:19:09;25.20;99.90
27900;DHT22;15243;50.726;7.080;2022-08-04T17:22:01;25.20;99.90
27900;DHT22;15243;50.726;7.080;2022-08-04T17:24:33;25.20;99.90
27900;DHT22;15243;50.726;7.080;2022-08-04T17:27:00;25.10;99.90
27900;DHT22;15243;50.726;7.080;2022-08-04T17:29:30;25.10;99.90
27900;DHT22;15243;50.726;7.080;2022-08-04T17:32:16;25.30;99.90
27900;DHT22;15243;50.726;7.080;2022-08-04T17:34:52;25.20;99.90
27900;DHT22;15243;50.726;7.080;2022-08-04T17:37:21;25.30;99.90
27900;DHT22;15243;50.726;7.080;2022-08-04T17:40:14;25.30;99.90
27900;DHT22;15243;50.726;7.080;2022-08-04T17:43:04;25.30;99.90
27900;DHT22;15243;50.726;7.080;2022-08-04T17:51:31;25.60;99.90
27900;DHT22;15243;50.726;7.080;2022-08-04T17:54:38;25.60;99.90
27900;DHT22;15243;50.726;7.080;2022-08-04T17:57:15;25.30;99.90
27900;DHT22;15243;50.726;7.080;2022-08-04T17:59:53;25.50;99.90
27900;DHT22;15243;50.726;7.080;2022-08-04T18:02:28;25.50;99.90
27900;DHT22;15243;50.726;7.080;2022-08-04T18:05:00;25.80;99.90
27900;DHT22;15243;50.726;7.080;2022-08-04T18:07:38;26.00;99.90
27900;DHT22;15243;50.726;7.080;2022-08-04T18:10:37;25.70;99.90
27900;DHT22;15243;50.726;7.080;2022-08-04T18:13:20;25.80;99.90
27900;DHT22;15243;50.726;7.080;2022-08-04T18:15:48;25.80;99.90
27900;DHT22;15243;50.726;7.080;2022-08-04T18:18:19;25.70;99.90
27900;DHT22;15243;50.726;7.080;2022-08-04T18:20:49;25.60;99.90
27900;DHT22;15243;50.726;7.080;2022-08-04T18:23:16;25.70;99.90
27900;DHT22;15243;50.726;7.080;2022-08-04T18:25:46;25.70;99.90
27900;DHT22;15243;50.726;7.080;2022-08-04T18:28:17;25.60;99.90
27900;DHT22;15243;50.726;7.080;2022-08-04T18:30:52;25.60;99.90
27900;DHT22;15243;50.726;7.080;2022-08-04T18:33:21;25.90;99.90
27900;DHT22;15243;50.726;7.080;2022-08-04T18:36:10;25.70;99.90
27900;DHT22;15243;50.726;7.080;2022-08-04T18:38:59;25.60;99.90
27900;DHT22;15243;50.726;7.080;2022-08-04T18:41:42;25.50;99.90
27900;DHT22;15243;50.726;7.080;2022-08-04T18:44:30;25.40;99.90
27900;DHT22;15243;50.726;7.080;2022-08-04T18:46:58;25.40;99.90
27900;DHT22;15243;50.726;7.080;2022-08-04T18:49:45;25.30;99.90
27900;DHT22;15243;50.726;7.080;2022-08-04T18:52:32;25.30;99.90
27900;DHT22;15243;50.726;7.080;2022-08-04T18:55:00;25.30;99.90
27900;DHT22;15243;50.726;7.080;2022-08-04T18:57:28;25.20;99.90
27900;DHT22;15243;50.726;7.080;2022-08-04T19:00:16;25.20;99.90
27900;DHT22;15243;50.726;7.080;2022-08-04T19:02:45;25.30;99.90
27900;DHT22;15243;50.726;7.080;2022-08-04T19:05:13;25.30;99.90
27900;DHT22;15243;50.726;7.080;2022-08-04T19:07:44;25.30;99.90
27900;DHT22;15243;50.726;7.080;2022-08-04T19:10:31;25.20;99.90
27900;DHT22;15243;50.726;7.080;2022-08-04T19:13:00;25.20;99.90
27900;DHT22;15243;50.726;7.080;2022-08-04T19:15:27;25.10;99.90
27900;DHT22;15243;50.726;7.080;2022-08-04T19:18:00;25.10;99.90
27900;DHT22;15243;50.726;7.080;2022-08-04T19:20:32;25.00;99.90
27900;DHT22;15243;50.726;7.080;2022-08-04T19:23:05;25.00;99.90
27900;DHT22;15243;50.726;7.080;2022-08-04T19:25:52;24.80;99.90
27900;DHT22;15243;50.726;7.080;2022-08-04T19:28:39;24.60;99.90
27900;DHT22;15243;50.726;7.080;2022-08-04T19:31:08;24.70;99.90
27900;DHT22;15243;50.726;7.080;2022-08-04T21:45:56;23.20;99.90
27900;DHT22;15243;50.726;7.080;2022-08-04T21:48:30;23.20;99.90
